sensor_id;sensor_type;location;lat;lon;timestamp;pressure;altitude;pressure_sealevel;temperature;humidity
56074;BME280;41950;55.840;37.442;2023-07-16T00:02:05;99408.38;;;15.32;93.52
56074;BME280;41950;55.840;37.442;2023-07-16T00:04:33;99391.19;;;15.26;93.39
56074;BME280;41950;55.840;37.442;2023-07-16T00:07:00;99367.41;;;15.12;93.06
56074;BME280;41950;55.840;37.442;2023-07-16T00:09:28;99367.59;;;15.07;92.69
56074;BME280;41950;55.840;37.442;2023-07-16T00:11:56;99402.38;;;15.30;92.90
56074;BME280;41950;55.840;37.442;2023-07-16T00:14:22;99400.59;;;15.30;92.78
56074;BME280;41950;55.840;37.442;2023-07-16T00:16:48;99404.84;;;15.33;92.38
56074;BME280;41950;55.840;37.442;2023-07-16T00:19:14;99395.56;;;15.26;92.42
56074;BME280;41950;55.840;37.442;2023-07-16T00:21:40;99397.28;;;15.27;92.47
56074;BME280;41950;55.840;37.442;2023-07-16T00:24:06;99394.66;;;15.27;92.57
56074;BME280;41950;55.840;37.442;2023-07-16T00:26:31;99394.72;;;15.25;92.17
56074;BME280;41950;55.840;37.442;2023-07-16T00:28:57;99408.16;;;15.38;92.18
56074;BME280;41950;55.840;37.442;2023-07-16T00:31:23;99402.81;;;15.41;91.64
56074;BME280;41950;55.840;37.442;2023-07-16T00:33:48;99385.78;;;15.31;91.67
56074;BME280;41950;55.840;37.442;2023-07-16T00:36:14;99408.69;;;15.46;91.73
56074;BME280;41950;55.840;37.442;2023-07-16T00:38:40;99397.38;;;15.45;91.53
56074;BME280;41950;55.840;37.442;2023-07-16T00:41:06;99410.13;;;15.53;91.31
56074;BME280;41950;55.840;37.442;2023-07-16T00:43:32;99402.28;;;15.53;91.02
56074;BME280;41950;55.840;37.442;2023-07-16T00:45:58;99405.75;;;15.54;90.82
56074;BME280;41950;55.840;37.442;2023-07-16T00:48:24;99397.31;;;15.47;90.75
56074;BME280;41950;55.840;37.442;2023-07-16T00:50:51;99411.97;;;15.51;90.57
56074;BME280;41950;55.840;37.442;2023-07-16T00:53:18;99404.09;;;15.51;90.55
56074;BME280;41950;55.840;37.442;2023-07-16T00:55:45;99381.22;;;15.36;90.83
56074;BME280;41950;55.840;37.442;2023-07-16T00:58:11;99407.78;;;15.47;90.50
56074;BME280;41950;55.840;37.442;2023-07-16T01:00:38;99402.59;;;15.45;90.59
56074;BME280;41950;55.840;37.442;2023-07-16T01:03:06;99408.69;;;15.46;90.88
56074;BME280;41950;55.840;37.442;2023-07-16T01:06:15;99408.03;;;15.41;90.90
56074;BME280;41950;55.840;37.442;2023-07-16T01:08:49;99417.72;;;15.39;91.39
56074;BME280;41950;55.840;37.442;2023-07-16T01:11:17;99396.63;;;15.22;91.60
56074;BME280;41950;55.840;37.442;2023-07-16T01:13:44;99402.56;;;15.25;91.77
56074;BME280;41950;55.840;37.442;2023-07-16T01:16:23;99434.25;;;15.39;91.71
56074;BME280;41950;55.840;37.442;2023-07-16T01:18:50;99418.84;;;15.32;91.84
56074;BME280;41950;55.840;37.442;2023-07-16T01:21:19;99411.19;;;15.27;92.01
56074;BME280;41950;55.840;37.442;2023-07-16T01:29:28;99433.34;;;15.40;92.08
56074;BME280;41950;55.840;37.442;2023-07-16T01:32:00;99435.88;;;15.42;92.31
56074;BME280;41950;55.840;37.442;2023-07-16T01:34:28;99435.81;;;15.43;92.55
56074;BME280;41950;55.840;37.442;2023-07-16T01:36:55;99436.66;;;15.44;92.72
56074;BME280;41950;55.840;37.442;2023-07-16T01:39:21;99427.38;;;15.37;92.78
56074;BME280;41950;55.840;37.442;2023-07-16T01:41:47;99441.84;;;15.45;93.08
56074;BME280;41950;55.840;37.442;2023-07-16T01:44:12;99402.50;;;15.27;93.10
56074;BME280;41950;55.840;37.442;2023-07-16T01:46:38;99420.53;;;15.34;93.04
56074;BME280;41950;55.840;37.442;2023-07-16T01:49:04;99445.03;;;15.52;92.67
56074;BME280;41950;55.840;37.442;2023-07-16T01:51:29;99448.50;;;15.53;92.69
56074;BME280;41950;55.840;37.442;2023-07-16T01:53:55;99447.47;;;15.57;92.33
56074;BME280;41950;55.840;37.442;2023-07-16T01:56:20;99442.19;;;15.58;92.29
56074;BME280;41950;55.840;37.442;2023-07-16T01:58:46;99429.47;;;15.49;91.98
56074;BME280;41950;55.840;37.442;2023-07-16T02:01:12;99422.56;;;15.48;92.01
56074;BME280;41950;55.840;37.442;2023-07-16T02:03:37;99448.97;;;15.64;92.02
56074;BME280;41950;55.840;37.442;2023-07-16T02:06:03;99432.22;;;15.46;92.38
56074;BME280;41950;55.840;37.442;2023-07-16T02:08:28;99447.72;;;15.51;92.30
56074;BME280;41950;55.840;37.442;2023-07-16T02:10:54;99429.94;;;15.38;92.20
56074;BME280;41950;55.840;37.442;2023-07-16T02:13:20;99436.13;;;15.36;92.68
56074;BME280;41950;55.840;37.442;2023-07-16T02:15:45;99444.72;;;15.39;92.86
56074;BME280;41950;55.840;37.442;2023-07-16T02:18:11;99438.75;;;15.36;92.89
56074;BME280;41950;55.840;37.442;2023-07-16T02:20:56;99456.03;;;15.40;92.98
56074;BME280;41950;55.840;37.442;2023-07-16T02:23:22;99456.88;;;15.40;93.28
56074;BME280;41950;55.840;37.442;2023-07-16T02:25:48;99436.44;;;15.28;93.42
56074;BME280;41950;55.840;37.442;2023-07-16T02:28:13;99427.06;;;15.23;93.39
56074;BME280;41950;55.840;37.442;2023-07-16T02:30:41;99460.28;;;15.42;93.64
56074;BME280;41950;55.840;37.442;2023-07-16T02:33:07;99449.94;;;15.39;93.50
56074;BME280;41950;55.840;37.442;2023-07-16T02:35:32;99465.38;;;15.45;93.29
56074;BME280;41950;55.840;37.442;2023-07-16T02:37:58;99461.72;;;15.50;93.20
56074;BME280;41950;55.840;37.442;2023-07-16T02:40:24;99465.97;;;15.52;93.09
56074;BME280;41950;55.840;37.442;2023-07-16T02:42:49;99458.13;;;15.52;92.73
56074;BME280;41950;55.840;37.442;2023-07-16T02:45:15;99453.03;;;15.49;92.95
56074;BME280;41950;55.840;37.442;2023-07-16T02:47:40;99460.66;;;15.54;92.75
56074;BME280;41950;55.840;37.442;2023-07-16T02:50:06;99453.81;;;15.51;92.51
56074;BME280;41950;55.840;37.442;2023-07-16T02:52:32;99463.34;;;15.52;92.55
56074;BME280;41950;55.840;37.442;2023-07-16T02:54:58;99467.75;;;15.52;92.51
56074;BME280;41950;55.840;37.442;2023-07-16T02:57:23;99471.06;;;15.55;92.58
56074;BME280;41950;55.840;37.442;2023-07-16T02:59:49;99459.75;;;15.55;92.63
56074;BME280;41950;55.840;37.442;2023-07-16T03:02:15;99461.59;;;15.53;92.26
56074;BME280;41950;55.840;37.442;2023-07-16T03:04:40;99470.97;;;15.58;92.22
56074;BME280;41950;55.840;37.442;2023-07-16T03:07:07;99470.97;;;15.58;92.23
56074;BME280;41950;55.840;37.442;2023-07-16T03:09:32;99473.44;;;15.63;92.15
56074;BME280;41950;55.840;37.442;2023-07-16T03:11:58;99484.00;;;15.60;91.76
56074;BME280;41950;55.840;37.442;2023-07-16T03:14:23;99477.81;;;15.62;91.95
56074;BME280;41950;55.840;37.442;2023-07-16T03:16:49;99484.50;;;15.69;91.47
56074;BME280;41950;55.840;37.442;2023-07-16T03:19:14;99457.81;;;15.61;91.40
56074;BME280;41950;55.840;37.442;2023-07-16T03:21:40;99477.16;;;15.77;91.19
56074;BME280;41950;55.840;37.442;2023-07-16T03:24:06;99457.28;;;15.73;90.86
56074;BME280;41950;55.840;37.442;2023-07-16T03:26:31;99480.19;;;15.89;90.82
56074;BME280;41950;55.840;37.442;2023-07-16T03:28:57;99482.00;;;15.87;90.69
56074;BME280;41950;55.840;37.442;2023-07-16T03:31:23;99491.03;;;15.80;90.79
56074;BME280;41950;55.840;37.442;2023-07-16T03:33:48;99484.41;;;15.71;90.96
56074;BME280;41950;55.840;37.442;2023-07-16T03:36:14;99483.13;;;15.59;91.26
56074;BME280;41950;55.840;37.442;2023-07-16T03:38:39;99495.09;;;15.66;91.31
56074;BME280;41950;55.840;37.442;2023-07-16T03:41:05;99492.28;;;15.71;90.74
56074;BME280;41950;55.840;37.442;2023-07-16T03:43:31;99493.78;;;15.76;90.67
56074;BME280;41950;55.840;37.442;2023-07-16T03:45:57;99500.25;;;15.88;90.63
56074;BME280;41950;55.840;37.442;2023-07-16T03:48:22;99504.13;;;16.00;89.92
56074;BME280;41950;55.840;37.442;2023-07-16T03:50:48;99483.72;;;16.08;89.30
56074;BME280;41950;55.840;37.442;2023-07-16T03:53:13;99504.94;;;16.22;88.54
56074;BME280;41950;55.840;37.442;2023-07-16T03:55:39;99513.91;;;16.17;88.73
56074;BME280;41950;55.840;37.442;2023-07-16T03:58:05;99514.22;;;16.09;89.00
56074;BME280;41950;55.840;37.442;2023-07-16T04:00:30;99492.88;;;15.98;89.26
56074;BME280;41950;55.840;37.442;2023-07-16T04:02:57;99493.81;;;15.97;89.17
56074;BME280;41950;55.840;37.442;2023-07-16T04:05:22;99504.66;;;16.08;89.43
56074;BME280;41950;55.840;37.442;2023-07-16T04:07:48;99494.84;;;16.13;89.32
56074;BME280;41950;55.840;37.442;2023-07-16T04:10:14;99513.16;;;16.33;89.06
56074;BME280;41950;55.840;37.442;2023-07-16T04:12:39;99512.75;;;16.43;88.74
56074;BME280;41950;55.840;37.442;2023-07-16T04:15:07;99513.50;;;16.46;88.32
56074;BME280;41950;55.840;37.442;2023-07-16T04:17:35;99508.38;;;16.43;88.13
56074;BME280;41950;55.840;37.442;2023-07-16T04:20:01;99511.06;;;16.42;88.42
56074;BME280;41950;55.840;37.442;2023-07-16T04:22:27;99519.75;;;16.42;88.49
56074;BME280;41950;55.840;37.442;2023-07-16T04:24:53;99513.38;;;16.49;88.51
56074;BME280;41950;55.840;37.442;2023-07-16T04:27:18;99505.50;;;16.49;88.33
56074;BME280;41950;55.840;37.442;2023-07-16T04:29:44;99497.88;;;16.43;88.01
56074;BME280;41950;55.840;37.442;2023-07-16T04:32:10;99522.84;;;16.52;87.55
56074;BME280;41950;55.840;37.442;2023-07-16T04:34:36;99527.75;;;16.39;88.32
56074;BME280;41950;55.840;37.442;2023-07-16T04:37:01;99503.09;;;16.24;88.34
56074;BME280;41950;55.840;37.442;2023-07-16T04:39:27;99520.38;;;16.28;88.83
56074;BME280;41950;55.840;37.442;2023-07-16T04:41:53;99522.22;;;16.26;89.12
56074;BME280;41950;55.840;37.442;2023-07-16T04:44:18;99509.63;;;16.14;89.22
56074;BME280;41950;55.840;37.442;2023-07-16T04:46:44;99528.03;;;16.33;88.96
56074;BME280;41950;55.840;37.442;2023-07-16T04:49:10;99526.53;;;16.27;89.08
56074;BME280;41950;55.840;37.442;2023-07-16T04:51:36;99517.91;;;16.25;89.38
56074;BME280;41950;55.840;37.442;2023-07-16T04:54:01;99523.78;;;16.30;89.23
56074;BME280;41950;55.840;37.442;2023-07-16T04:56:27;99522.38;;;16.42;89.07
56074;BME280;41950;55.840;37.442;2023-07-16T04:58:52;99514.84;;;16.55;88.55
56074;BME280;41950;55.840;37.442;2023-07-16T05:01:18;99510.00;;;16.66;88.10
56074;BME280;41950;55.840;37.442;2023-07-16T05:03:46;99500.69;;;16.59;88.00
56074;BME280;41950;55.840;37.442;2023-07-16T05:06:11;99520.28;;;16.71;87.50
56074;BME280;41950;55.840;37.442;2023-07-16T05:08:37;99518.75;;;16.65;88.00
56074;BME280;41950;55.840;37.442;2023-07-16T05:11:02;99515.19;;;16.67;88.08
56074;BME280;41950;55.840;37.442;2023-07-16T05:13:28;99495.31;;;16.62;87.58
56074;BME280;41950;55.840;37.442;2023-07-16T05:15:54;99516.97;;;16.86;87.50
56074;BME280;41950;55.840;37.442;2023-07-16T05:18:20;99485.88;;;16.78;87.19
56074;BME280;41950;55.840;37.442;2023-07-16T05:20:50;99510.19;;;17.01;86.90
56074;BME280;41950;55.840;37.442;2023-07-16T05:23:16;99518.41;;;16.93;86.51
56074;BME280;41950;55.840;37.442;2023-07-16T05:25:49;99492.91;;;16.78;86.63
56074;BME280;41950;55.840;37.442;2023-07-16T05:28:16;99525.09;;;17.00;86.84
56074;BME280;41950;55.840;37.442;2023-07-16T05:30:42;99523.56;;;17.13;86.30
56074;BME280;41950;55.840;37.442;2023-07-16T05:33:07;99527.06;;;17.14;86.23
56074;BME280;41950;55.840;37.442;2023-07-16T05:35:33;99520.88;;;17.15;86.05
56074;BME280;41950;55.840;37.442;2023-07-16T05:37:59;99510.03;;;17.22;85.60
56074;BME280;41950;55.840;37.442;2023-07-16T05:40:24;99536.41;;;17.38;85.24
56074;BME280;41950;55.840;37.442;2023-07-16T05:42:50;99504.78;;;17.22;85.25
56074;BME280;41950;55.840;37.442;2023-07-16T05:45:16;99535.31;;;17.42;85.16
56074;BME280;41950;55.840;37.442;2023-07-16T05:47:41;99529.44;;;17.56;85.37
56074;BME280;41950;55.840;37.442;2023-07-16T05:50:07;99520.81;;;17.71;84.63
56074;BME280;41950;55.840;37.442;2023-07-16T05:52:33;99534.22;;;17.84;83.75
56074;BME280;41950;55.840;37.442;2023-07-16T05:54:59;99536.06;;;17.82;83.71
56074;BME280;41950;55.840;37.442;2023-07-16T05:57:24;99536.34;;;17.76;83.85
56074;BME280;41950;55.840;37.442;2023-07-16T05:59:50;99520.59;;;17.76;83.61
56074;BME280;41950;55.840;37.442;2023-07-16T06:02:16;99535.00;;;17.86;83.50
56074;BME280;41950;55.840;37.442;2023-07-16T06:04:41;99538.84;;;17.96;83.11
56074;BME280;41950;55.840;37.442;2023-07-16T06:07:07;99541.41;;;17.98;83.34
56074;BME280;41950;55.840;37.442;2023-07-16T06:09:33;99533.06;;;17.89;83.04
56074;BME280;41950;55.840;37.442;2023-07-16T06:11:59;99533.50;;;17.80;83.74
56074;BME280;41950;55.840;37.442;2023-07-16T06:14:24;99522.03;;;17.64;84.22
56074;BME280;41950;55.840;37.442;2023-07-16T06:16:50;99537.88;;;17.80;84.01
56074;BME280;41950;55.840;37.442;2023-07-16T06:19:16;99544.41;;;17.90;83.81
56074;BME280;41950;55.840;37.442;2023-07-16T06:21:41;99532.66;;;17.97;83.48
56074;BME280;41950;55.840;37.442;2023-07-16T06:24:07;99543.47;;;18.26;82.45
56074;BME280;41950;55.840;37.442;2023-07-16T06:26:33;99543.41;;;18.44;81.90
56074;BME280;41950;55.840;37.442;2023-07-16T06:28:58;99528.25;;;18.49;81.18
56074;BME280;41950;55.840;37.442;2023-07-16T06:31:24;99542.50;;;18.61;80.76
56074;BME280;41950;55.840;37.442;2023-07-16T06:33:50;99537.25;;;18.61;79.86
56074;BME280;41950;55.840;37.442;2023-07-16T06:36:16;99542.91;;;18.53;79.87
56074;BME280;41950;55.840;37.442;2023-07-16T06:38:42;99528.81;;;18.39;80.69
56074;BME280;41950;55.840;37.442;2023-07-16T06:41:07;99517.50;;;18.71;80.09
56074;BME280;41950;55.840;37.442;2023-07-16T06:43:33;99535.53;;;18.95;79.47
56074;BME280;41950;55.840;37.442;2023-07-16T06:45:59;99544.09;;;19.14;79.02
56074;BME280;41950;55.840;37.442;2023-07-16T06:48:24;99516.69;;;19.02;78.24
56074;BME280;41950;55.840;37.442;2023-07-16T06:50:50;99548.41;;;19.15;77.58
56074;BME280;41950;55.840;37.442;2023-07-16T06:53:16;99533.34;;;19.19;77.43
56074;BME280;41950;55.840;37.442;2023-07-16T06:55:42;99519.56;;;18.98;77.00
56074;BME280;41950;55.840;37.442;2023-07-16T06:58:10;99532.13;;;18.93;77.64
56074;BME280;41950;55.840;37.442;2023-07-16T07:00:37;99487.81;;;18.69;77.84
56074;BME280;41950;55.840;37.442;2023-07-16T07:03:02;99546.63;;;19.00;77.23
56074;BME280;41950;55.840;37.442;2023-07-16T07:05:28;99509.09;;;18.47;78.76
56074;BME280;41950;55.840;37.442;2023-07-16T07:07:54;99524.16;;;18.44;79.46
56074;BME280;41950;55.840;37.442;2023-07-16T07:10:20;99524.09;;;18.28;79.95
56074;BME280;41950;55.840;37.442;2023-07-16T07:12:45;99563.13;;;18.36;80.35
56074;BME280;41950;55.840;37.442;2023-07-16T07:15:11;99552.66;;;18.34;81.07
56074;BME280;41950;55.840;37.442;2023-07-16T07:17:37;99540.09;;;18.23;81.10
56074;BME280;41950;55.840;37.442;2023-07-16T07:20:03;99550.34;;;18.28;81.24
56074;BME280;41950;55.840;37.442;2023-07-16T07:22:31;99544.19;;;18.29;80.83
56074;BME280;41950;55.840;37.442;2023-07-16T07:24:57;99552.34;;;18.58;80.74
56074;BME280;41950;55.840;37.442;2023-07-16T07:27:23;99554.09;;;18.92;79.23
56074;BME280;41950;55.840;37.442;2023-07-16T07:29:49;99559.69;;;19.17;78.15
56074;BME280;41950;55.840;37.442;2023-07-16T07:32:20;99532.38;;;19.35;76.61
56074;BME280;41950;55.840;37.442;2023-07-16T07:34:46;99552.78;;;19.63;75.78
56074;BME280;41950;55.840;37.442;2023-07-16T07:37:12;99541.09;;;19.53;75.60
56074;BME280;41950;55.840;37.442;2023-07-16T07:39:38;99537.13;;;19.44;75.28
56074;BME280;41950;55.840;37.442;2023-07-16T07:42:04;99548.81;;;19.56;75.64
56074;BME280;41950;55.840;37.442;2023-07-16T07:44:30;99525.53;;;19.64;75.74
56074;BME280;41950;55.840;37.442;2023-07-16T07:46:56;99542.81;;;20.00;75.43
56074;BME280;41950;55.840;37.442;2023-07-16T07:49:21;99544.25;;;20.20;75.35
56074;BME280;41950;55.840;37.442;2023-07-16T07:51:48;99538.56;;;20.27;74.23
56074;BME280;41950;55.840;37.442;2023-07-16T07:54:15;99541.22;;;20.42;73.70
56074;BME280;41950;55.840;37.442;2023-07-16T07:56:41;99547.81;;;20.49;72.35
56074;BME280;41950;55.840;37.442;2023-07-16T07:59:07;99550.38;;;20.50;72.75
56074;BME280;41950;55.840;37.442;2023-07-16T08:01:33;99517.75;;;20.37;72.31
56074;BME280;41950;55.840;37.442;2023-07-16T08:04:01;99532.69;;;20.66;72.35
56074;BME280;41950;55.840;37.442;2023-07-16T16:35:55;99417.06;;;21.55;51.78
56074;BME280;41950;55.840;37.442;2023-07-16T16:38:21;99386.91;;;21.33;52.06
56074;BME280;41950;55.840;37.442;2023-07-16T16:40:47;99516.84;;;22.04;51.35
56074;BME280;41950;55.840;37.442;2023-07-16T16:43:13;99511.75;;;22.01;51.79
56074;BME280;41950;55.840;37.442;2023-07-16T16:45:39;99413.66;;;21.41;51.61
56074;BME280;41950;55.840;37.442;2023-07-16T16:48:30;99359.84;;;21.02;52.31
56074;BME280;41950;55.840;37.442;2023-07-16T16:51:00;99364.69;;;20.95;52.90
56074;BME280;41950;55.840;37.442;2023-07-16T16:53:26;99420.72;;;21.13;53.08
56074;BME280;41950;55.840;37.442;2023-07-16T16:55:52;99470.59;;;21.45;53.31
56074;BME280;41950;55.840;37.442;2023-07-16T16:58:18;99498.41;;;21.63;53.23
56074;BME280;41950;55.840;37.442;2023-07-16T17:00:44;99416.84;;;21.05;53.44
56074;BME280;41950;55.840;37.442;2023-07-16T17:03:13;99556.63;;;21.88;54.19
56074;BME280;41950;55.840;37.442;2023-07-16T17:05:42;99423.56;;;20.96;54.08
56074;BME280;41950;55.840;37.442;2023-07-16T17:08:07;99566.41;;;21.74;54.68
56074;BME280;41950;55.840;37.442;2023-07-16T17:10:33;99441.34;;;21.07;54.36
56074;BME280;41950;55.840;37.442;2023-07-16T17:12:59;99475.81;;;21.18;54.55
56074;BME280;41950;55.840;37.442;2023-07-16T17:15:26;99567.19;;;21.62;55.80
56074;BME280;41950;55.840;37.442;2023-07-16T17:17:52;99506.66;;;21.17;55.23
56074;BME280;41950;55.840;37.442;2023-07-16T17:20:22;99563.00;;;21.45;54.99
56074;BME280;41950;55.840;37.442;2023-07-16T17:22:48;99512.22;;;21.13;54.71
56074;BME280;41950;55.840;37.442;2023-07-16T17:25:14;99535.13;;;21.12;55.35
56074;BME280;41950;55.840;37.442;2023-07-16T17:27:39;99548.88;;;21.17;55.63
56074;BME280;41950;55.840;37.442;2023-07-16T17:30:08;99551.91;;;21.11;55.64
56074;BME280;41950;55.840;37.442;2023-07-16T17:32:34;99572.63;;;21.17;56.02
56074;BME280;41950;55.840;37.442;2023-07-16T17:35:01;99575.56;;;21.13;56.58
56074;BME280;41950;55.840;37.442;2023-07-16T17:37:30;99554.94;;;20.91;57.16
56074;BME280;41950;55.840;37.442;2023-07-16T17:39:56;99577.63;;;20.93;57.98
56074;BME280;41950;55.840;37.442;2023-07-16T17:42:22;99553.13;;;20.63;57.91
56074;BME280;41950;55.840;37.442;2023-07-16T17:44:48;99546.13;;;20.48;58.56
56074;BME280;41950;55.840;37.442;2023-07-16T17:47:14;99592.22;;;20.71;58.65
56074;BME280;41950;55.840;37.442;2023-07-16T17:49:40;99592.59;;;20.64;59.36
56074;BME280;41950;55.840;37.442;2023-07-16T17:52:06;99587.78;;;20.57;59.87
56074;BME280;41950;55.840;37.442;2023-07-16T17:54:32;99567.59;;;20.42;59.97
56074;BME280;41950;55.840;37.442;2023-07-16T17:56:58;99572.25;;;20.36;59.81
56074;BME280;41950;55.840;37.442;2023-07-16T17:59:24;99541.72;;;20.18;59.94
56074;BME280;41950;55.840;37.442;2023-07-16T18:01:50;99583.50;;;20.40;60.28
56074;BME280;41950;55.840;37.442;2023-07-16T18:04:17;99553.66;;;20.10;60.93
56074;BME280;41950;55.840;37.442;2023-07-16T18:06:43;99582.09;;;20.19;61.28
56074;BME280;41950;55.840;37.442;2023-07-16T18:09:10;99591.88;;;20.17;61.48
56074;BME280;41950;55.840;37.442;2023-07-16T18:11:36;99578.75;;;20.01;61.68
56074;BME280;41950;55.840;37.442;2023-07-16T18:14:02;99591.06;;;20.00;62.16
56074;BME280;41950;55.840;37.442;2023-07-16T18:16:29;99557.63;;;19.71;62.92
56074;BME280;41950;55.840;37.442;2023-07-16T18:18:55;99566.53;;;19.68;63.18
56074;BME280;41950;55.840;37.442;2023-07-16T18:21:21;99589.06;;;19.74;64.17
56074;BME280;41950;55.840;37.442;2023-07-16T18:23:46;99593.22;;;19.62;63.92
56074;BME280;41950;55.840;37.442;2023-07-16T18:26:13;99594.91;;;19.63;64.54
56074;BME280;41950;55.840;37.442;2023-07-16T18:28:39;99598.56;;;19.61;64.61
56074;BME280;41950;55.840;37.442;2023-07-16T18:31:05;99561.50;;;19.32;64.79
56074;BME280;41950;55.840;37.442;2023-07-16T18:33:31;99600.00;;;19.51;64.82
56074;BME280;41950;55.840;37.442;2023-07-16T18:35:57;99592.84;;;19.53;64.42
56074;BME280;41950;55.840;37.442;2023-07-16T18:38:23;99574.16;;;19.41;64.54
56074;BME280;41950;55.840;37.442;2023-07-16T18:40:51;99574.50;;;19.35;64.63
56074;BME280;41950;55.840;37.442;2023-07-16T18:43:17;99590.41;;;19.50;64.75
56074;BME280;41950;55.840;37.442;2023-07-16T18:45:43;99575.44;;;19.34;65.24
56074;BME280;41950;55.840;37.442;2023-07-16T18:48:09;99568.13;;;19.24;65.69
56074;BME280;41950;55.840;37.442;2023-07-16T18:50:35;99557.41;;;19.11;65.92
56074;BME280;41950;55.840;37.442;2023-07-16T18:53:01;99572.63;;;19.22;65.70
56074;BME280;41950;55.840;37.442;2023-07-16T18:55:28;99599.53;;;19.42;65.91
56074;BME280;41950;55.840;37.442;2023-07-16T18:57:54;99575.19;;;19.23;65.97
56074;BME280;41950;55.840;37.442;2023-07-16T19:00:19;99552.50;;;19.05;66.60
56074;BME280;41950;55.840;37.442;2023-07-16T19:02:45;99586.91;;;19.18;66.95
56074;BME280;41950;55.840;37.442;2023-07-16T19:05:12;99598.19;;;19.20;66.96
56074;BME280;41950;55.840;37.442;2023-07-16T19:07:39;99545.75;;;18.83;67.25
56074;BME280;41950;55.840;37.442;2023-07-16T19:10:05;99511.28;;;18.55;67.47
56074;BME280;41950;55.840;37.442;2023-07-16T19:12:30;99576.19;;;18.88;68.05
56074;BME280;41950;55.840;37.442;2023-07-16T19:14:56;99596.09;;;18.93;68.13
56074;BME280;41950;55.840;37.442;2023-07-16T19:17:32;99608.47;;;18.91;68.91
56074;BME280;41950;55.840;37.442;2023-07-16T19:19:58;99577.19;;;18.69;69.02
56074;BME280;41950;55.840;37.442;2023-07-16T19:22:25;99596.34;;;18.71;69.34
56074;BME280;41950;55.840;37.442;2023-07-16T19:24:52;99594.75;;;18.69;69.58
56074;BME280;41950;55.840;37.442;2023-07-16T19:27:18;99582.50;;;18.50;70.60
56074;BME280;41950;55.840;37.442;2023-07-16T19:29:44;99584.81;;;18.57;70.81
56074;BME280;41950;55.840;37.442;2023-07-16T19:32:10;99545.03;;;18.30;71.00
56074;BME280;41950;55.840;37.442;2023-07-16T19:34:35;99557.88;;;18.36;71.22
56074;BME280;41950;55.840;37.442;2023-07-16T19:37:01;99566.91;;;18.30;71.57
56074;BME280;41950;55.840;37.442;2023-07-16T19:39:31;99582.56;;;18.32;72.34
56074;BME280;41950;55.840;37.442;2023-07-16T19:41:57;99585.97;;;18.34;72.22
56074;BME280;41950;55.840;37.442;2023-07-16T19:44:23;99551.44;;;18.07;72.52
56074;BME280;41950;55.840;37.442;2023-07-16T19:46:49;99523.56;;;17.87;72.67
56074;BME280;41950;55.840;37.442;2023-07-16T19:49:15;99586.97;;;18.31;73.10
56074;BME280;41950;55.840;37.442;2023-07-16T19:51:41;99559.38;;;18.05;73.38
56074;BME280;41950;55.840;37.442;2023-07-16T19:54:08;99534.00;;;17.88;73.23
56074;BME280;41950;55.840;37.442;2023-07-16T19:56:34;99585.59;;;18.24;73.48
56074;BME280;41950;55.840;37.442;2023-07-16T19:59:00;99505.28;;;17.67;73.50
56074;BME280;41950;55.840;37.442;2023-07-16T20:01:26;99594.72;;;18.17;73.80
56074;BME280;41950;55.840;37.442;2023-07-16T20:03:51;99588.16;;;18.08;74.26
56074;BME280;41950;55.840;37.442;2023-07-16T20:06:17;99595.88;;;18.11;74.53
56074;BME280;41950;55.840;37.442;2023-07-16T20:08:43;99593.44;;;18.07;74.61
56074;BME280;41950;55.840;37.442;2023-07-16T20:11:09;99580.56;;;18.02;74.67
56074;BME280;41950;55.840;37.442;2023-07-16T20:13:35;99588.94;;;18.10;74.58
56074;BME280;41950;55.840;37.442;2023-07-16T20:16:01;99587.34;;;18.06;74.81
56074;BME280;41950;55.840;37.442;2023-07-16T20:18:26;99594.47;;;18.04;74.97
56074;BME280;41950;55.840;37.442;2023-07-16T20:20:52;99555.38;;;17.81;75.14
56074;BME280;41950;55.840;37.442;2023-07-16T20:23:19;99598.16;;;18.00;75.51
56074;BME280;41950;55.840;37.442;2023-07-16T20:25:45;99537.78;;;17.64;75.94
56074;BME280;41950;55.840;37.442;2023-07-16T20:28:16;99554.25;;;17.68;76.26
56074;BME280;41950;55.840;37.442;2023-07-16T20:30:42;99595.53;;;17.83;76.45
56074;BME280;41950;55.840;37.442;2023-07-16T20:33:08;99507.31;;;17.24;76.54
56074;BME280;41950;55.840;37.442;2023-07-16T20:35:33;99518.56;;;17.27;76.67
56074;BME280;41950;55.840;37.442;2023-07-16T20:37:59;99532.38;;;17.31;77.07
56074;BME280;41950;55.840;37.442;2023-07-16T20:40:25;99573.25;;;17.54;77.10
56074;BME280;41950;55.840;37.442;2023-07-16T20:42:55;99546.03;;;17.38;77.18
56074;BME280;41950;55.840;37.442;2023-07-16T20:45:22;99575.81;;;17.55;77.21
56074;BME280;41950;55.840;37.442;2023-07-16T20:47:50;99555.53;;;17.40;77.47
56074;BME280;41950;55.840;37.442;2023-07-16T20:50:20;99554.69;;;17.40;77.77
56074;BME280;41950;55.840;37.442;2023-07-16T20:52:49;99554.84;;;17.37;77.98
56074;BME280;41950;55.840;37.442;2023-07-16T20:55:16;99598.22;;;17.63;78.49
56074;BME280;41950;55.840;37.442;2023-07-16T20:57:42;99556.69;;;17.35;78.48
56074;BME280;41950;55.840;37.442;2023-07-16T21:00:09;99600.22;;;17.57;78.69
56074;BME280;41950;55.840;37.442;2023-07-16T21:02:50;99549.50;;;17.19;78.96
56074;BME280;41950;55.840;37.442;2023-07-16T21:05:17;99604.16;;;17.47;78.99
56074;BME280;41950;55.840;37.442;2023-07-16T21:07:44;99606.94;;;17.44;79.45
56074;BME280;41950;55.840;37.442;2023-07-16T21:10:12;99592.69;;;17.31;79.67
56074;BME280;41950;55.840;37.442;2023-07-16T21:12:38;99609.84;;;17.38;79.72
56074;BME280;41950;55.840;37.442;2023-07-16T21:15:05;99607.44;;;17.34;79.92
56074;BME280;41950;55.840;37.442;2023-07-16T21:17:38;99604.28;;;17.25;80.25
56074;BME280;41950;55.840;37.442;2023-07-16T21:20:04;99579.78;;;17.08;80.56
56074;BME280;41950;55.840;37.442;2023-07-16T21:22:35;99527.97;;;16.75;80.89